sensor_id;sensor_type;location;lat;lon;timestamp;temperature;humidity
4081;DHT22;2055;50.074;8.436;2023-02-05T00:02:23;3.90;99.90
4081;DHT22;2055;50.074;8.436;2023-02-05T00:04:49;3.70;99.90
4081;DHT22;2055;50.074;8.436;2023-02-05T00:07:14;3.60;99.90
4081;DHT22;2055;50.074;8.436;2023-02-05T00:09:40;3.40;99.90
4081;DHT22;2055;50.074;8.436;2023-02-05T00:12:06;3.70;99.90
4081;DHT22;2055;50.074;8.436;2023-02-05T00:14:32;3.20;99.90
4081;DHT22;2055;50.074;8.436;2023-02-05T00:16:57;2.90;99.90
4081;DHT22;2055;50.074;8.436;2023-02-05T00:19:23;2.80;99.90
4081;DHT22;2055;50.074;8.436;2023-02-05T00:21:48;2.70;99.90
4081;DHT22;2055;50.074;8.436;2023-02-05T00:24:14;2.70;99.90
4081;DHT22;2055;50.074;8.436;2023-02-05T00:26:40;2.40;99.90
4081;DHT22;2055;50.074;8.436;2023-02-05T00:29:06;2.40;99.90
4081;DHT22;2055;50.074;8.436;2023-02-05T00:31:31;2.30;99.90
4081;DHT22;2055;50.074;8.436;2023-02-05T00:33:57;2.30;99.90
4081;DHT22;2055;50.074;8.436;2023-02-05T00:36:23;2.80;99.90
4081;DHT22;2055;50.074;8.436;2023-02-05T00:38:49;2.80;99.90
4081;DHT22;2055;50.074;8.436;2023-02-05T00:41:16;3.30;99.90
4081;DHT22;2055;50.074;8.436;2023-02-05T00:43:42;2.80;99.90
4081;DHT22;2055;50.074;8.436;2023-02-05T00:46:09;2.80;99.90
4081;DHT22;2055;50.074;8.436;2023-02-05T00:48:35;3.00;99.90
4081;DHT22;2055;50.074;8.436;2023-02-05T00:51:01;3.30;99.90
4081;DHT22;2055;50.074;8.436;2023-02-05T00:53:27;3.40;99.90
4081;DHT22;2055;50.074;8.436;2023-02-05T00:55:52;3.40;99.90
4081;DHT22;2055;50.074;8.436;2023-02-05T00:58:18;3.30;99.90
4081;DHT22;2055;50.074;8.436;2023-02-05T01:00:44;3.40;99.90
4081;DHT22;2055;50.074;8.436;2023-02-05T01:03:10;3.40;99.90
4081;DHT22;2055;50.074;8.436;2023-02-05T01:05:37;3.30;99.90
4081;DHT22;2055;50.074;8.436;2023-02-05T01:08:04;3.40;99.90
4081;DHT22;2055;50.074;8.436;2023-02-05T01:10:30;3.50;99.90
4081;DHT22;2055;50.074;8.436;2023-02-05T01:12:56;3.60;99.90
4081;DHT22;2055;50.074;8.436;2023-02-05T01:15:21;3.60;99.90
4081;DHT22;2055;50.074;8.436;2023-02-05T01:17:47;3.70;99.90
4081;DHT22;2055;50.074;8.436;2023-02-05T01:20:14;3.70;99.90
4081;DHT22;2055;50.074;8.436;2023-02-05T01:22:40;3.70;99.90
4081;DHT22;2055;50.074;8.436;2023-02-05T01:25:07;3.70;99.90
4081;DHT22;2055;50.074;8.436;2023-02-05T01:27:33;3.70;99.90
4081;DHT22;2055;50.074;8.436;2023-02-05T01:29:59;3.70;99.90
4081;DHT22;2055;50.074;8.436;2023-02-05T01:32:26;3.90;99.90
4081;DHT22;2055;50.074;8.436;2023-02-05T01:34:51;4.20;99.90
4081;DHT22;2055;50.074;8.436;2023-02-05T01:37:17;4.00;99.90
4081;DHT22;2055;50.074;8.436;2023-02-05T01:39:42;4.00;99.90
4081;DHT22;2055;50.074;8.436;2023-02-05T01:42:21;4.10;99.90
4081;DHT22;2055;50.074;8.436;2023-02-05T01:47:58;4.10;99.90
4081;DHT22;2055;50.074;8.436;2023-02-05T01:50:39;4.10;99.90
4081;DHT22;2055;50.074;8.436;2023-02-05T01:53:17;4.10;99.90
4081;DHT22;2055;50.074;8.436;2023-02-05T01:55:49;4.10;99.90
4081;DHT22;2055;50.074;8.436;2023-02-05T01:58:16;4.10;99.90
4081;DHT22;2055;50.074;8.436;2023-02-05T02:00:42;4.10;99.90
4081;DHT22;2055;50.074;8.436;2023-02-05T02:03:10;4.00;99.90
4081;DHT22;2055;50.074;8.436;2023-02-05T02:05:35;4.10;99.90
4081;DHT22;2055;50.074;8.436;2023-02-05T02:08:01;4.10;99.90
4081;DHT22;2055;50.074;8.436;2023-02-05T02:10:28;4.10;99.90
4081;DHT22;2055;50.074;8.436;2023-02-05T02:12:54;4.00;99.90
4081;DHT22;2055;50.074;8.436;2023-02-05T02:15:22;4.10;99.90
4081;DHT22;2055;50.074;8.436;2023-02-05T02:17:54;4.00;99.90
4081;DHT22;2055;50.074;8.436;2023-02-05T02:20:24;4.00;99.90
4081;DHT22;2055;50.074;8.436;2023-02-05T02:28:11;4.00;99.90
4081;DHT22;2055;50.074;8.436;2023-02-05T02:30:44;4.00;99.90
4081;DHT22;2055;50.074;8.436;2023-02-05T02:33:27;4.10;99.90
4081;DHT22;2055;50.074;8.436;2023-02-05T02:35:57;3.90;99.90
4081;DHT22;2055;50.074;8.436;2023-02-05T02:41:25;4.00;99.90
4081;DHT22;2055;50.074;8.436;2023-02-05T02:44:02;4.00;99.90
4081;DHT22;2055;50.074;8.436;2023-02-05T02:46:43;3.90;99.90
4081;DHT22;2055;50.074;8.436;2023-02-05T02:49:17;3.90;99.90
4081;DHT22;2055;50.074;8.436;2023-02-05T02:51:45;4.00;99.90
4081;DHT22;2055;50.074;8.436;2023-02-05T02:54:15;4.00;99.90
4081;DHT22;2055;50.074;8.436;2023-02-05T02:56:43;4.00;99.90
4081;DHT22;2055;50.074;8.436;2023-02-05T02:59:22;4.00;99.90
4081;DHT22;2055;50.074;8.436;2023-02-05T03:01:53;4.00;99.90
4081;DHT22;2055;50.074;8.436;2023-02-05T03:04:33;4.00;99.90
4081;DHT22;2055;50.074;8.436;2023-02-05T03:07:14;4.00;99.90
4081;DHT22;2055;50.074;8.436;2023-02-05T03:12:27;4.00;99.90
4081;DHT22;2055;50.074;8.436;2023-02-05T03:14:53;4.00;99.90
4081;DHT22;2055;50.074;8.436;2023-02-05T03:17:20;3.90;99.90
4081;DHT22;2055;50.074;8.436;2023-02-05T03:19:51;3.90;99.90
4081;DHT22;2055;50.074;8.436;2023-02-05T03:22:20;3.90;99.90
4081;DHT22;2055;50.074;8.436;2023-02-05T03:24:46;3.90;99.90
4081;DHT22;2055;50.074;8.436;2023-02-05T03:27:11;3.90;99.90
4081;DHT22;2055;50.074;8.436;2023-02-05T03:29:39;3.90;99.90
4081;DHT22;2055;50.074;8.436;2023-02-05T03:40:17;3.90;99.90
4081;DHT22;2055;50.074;8.436;2023-02-05T03:43:14;3.90;99.90
4081;DHT22;2055;50.074;8.436;2023-02-05T03:51:18;3.90;99.90
4081;DHT22;2055;50.074;8.436;2023-02-05T03:54:08;3.90;99.90
4081;DHT22;2055;50.074;8.436;2023-02-05T03:59:09;3.90;99.90
4081;DHT22;2055;50.074;8.436;2023-02-05T04:01:36;3.70;99.90
4081;DHT22;2055;50.074;8.436;2023-02-05T04:04:02;4.00;99.90
4081;DHT22;2055;50.074;8.436;2023-02-05T04:06:27;4.00;99.90
4081;DHT22;2055;50.074;8.436;2023-02-05T04:08:53;4.00;99.90
4081;DHT22;2055;50.074;8.436;2023-02-05T04:11:18;4.40;99.90
4081;DHT22;2055;50.074;8.436;2023-02-05T04:13:44;4.10;99.90
4081;DHT22;2055;50.074;8.436;2023-02-05T04:16:09;4.10;99.90
4081;DHT22;2055;50.074;8.436;2023-02-05T04:18:35;4.00;99.90
4081;DHT22;2055;50.074;8.436;2023-02-05T04:21:00;4.10;99.90
4081;DHT22;2055;50.074;8.436;2023-02-05T04:23:26;4.10;99.90
4081;DHT22;2055;50.074;8.436;2023-02-05T04:25:53;4.10;99.90
4081;DHT22;2055;50.074;8.436;2023-02-05T04:28:19;4.10;99.90
4081;DHT22;2055;50.074;8.436;2023-02-05T04:30:45;4.10;99.90
4081;DHT22;2055;50.074;8.436;2023-02-05T04:33:10;4.10;99.90
4081;DHT22;2055;50.074;8.436;2023-02-05T04:35:36;4.30;99.90
4081;DHT22;2055;50.074;8.436;2023-02-05T04:38:02;4.10;99.90
4081;DHT22;2055;50.074;8.436;2023-02-05T04:40:27;4.10;99.90
4081;DHT22;2055;50.074;8.436;2023-02-05T04:42:53;4.10;99.90
4081;DHT22;2055;50.074;8.436;2023-02-05T04:45:19;4.10;99.90
4081;DHT22;2055;50.074;8.436;2023-02-05T04:47:44;4.10;99.90
4081;DHT22;2055;50.074;8.436;2023-02-05T04:50:10;4.00;99.90
4081;DHT22;2055;50.074;8.436;2023-02-05T04:52:35;4.10;99.90
4081;DHT22;2055;50.074;8.436;2023-02-05T04:55:01;4.10;99.90
4081;DHT22;2055;50.074;8.436;2023-02-05T04:57:29;4.10;99.90
4081;DHT22;2055;50.074;8.436;2023-02-05T04:59:54;4.10;99.90
4081;DHT22;2055;50.074;8.436;2023-02-05T05:02:20;4.10;99.90
4081;DHT22;2055;50.074;8.436;2023-02-05T05:04:45;4.10;99.90
4081;DHT22;2055;50.074;8.436;2023-02-05T05:07:11;4.10;99.90
4081;DHT22;2055;50.074;8.436;2023-02-05T05:09:36;4.10;99.90
4081;DHT22;2055;50.074;8.436;2023-02-05T05:12:02;4.10;99.90
4081;DHT22;2055;50.074;8.436;2023-02-05T05:14:28;4.10;99.90
4081;DHT22;2055;50.074;8.436;2023-02-05T05:16:54;4.10;99.90
4081;DHT22;2055;50.074;8.436;2023-02-05T05:19:19;4.10;99.90
4081;DHT22;2055;50.074;8.436;2023-02-05T05:21:45;4.30;99.90
4081;DHT22;2055;50.074;8.436;2023-02-05T05:24:10;4.10;99.90
4081;DHT22;2055;50.074;8.436;2023-02-05T05:26:36;4.10;99.90
4081;DHT22;2055;50.074;8.436;2023-02-05T05:29:03;4.10;99.90
4081;DHT22;2055;50.074;8.436;2023-02-05T05:31:30;4.10;99.90
4081;DHT22;2055;50.074;8.436;2023-02-05T05:33:56;4.10;99.90
4081;DHT22;2055;50.074;8.436;2023-02-05T05:36:21;4.10;99.90
4081;DHT22;2055;50.074;8.436;2023-02-05T05:38:47;4.20;99.90
4081;DHT22;2055;50.074;8.436;2023-02-05T05:41:21;4.00;99.90
4081;DHT22;2055;50.074;8.436;2023-02-05T05:44:06;4.00;99.90
4081;DHT22;2055;50.074;8.436;2023-02-05T05:46:31;4.00;99.90
4081;DHT22;2055;50.074;8.436;2023-02-05T05:49:00;3.90;99.90
4081;DHT22;2055;50.074;8.436;2023-02-05T05:51:28;3.80;99.90
4081;DHT22;2055;50.074;8.436;2023-02-05T05:53:54;3.80;99.90
4081;DHT22;2055;50.074;8.436;2023-02-05T05:56:20;3.80;99.90
4081;DHT22;2055;50.074;8.436;2023-02-05T05:58:46;4.00;99.90
4081;DHT22;2055;50.074;8.436;2023-02-05T06:01:13;3.80;99.90
4081;DHT22;2055;50.074;8.436;2023-02-05T06:03:40;4.00;99.90
4081;DHT22;2055;50.074;8.436;2023-02-05T06:06:07;3.80;99.90
4081;DHT22;2055;50.074;8.436;2023-02-05T06:08:33;3.70;99.90
4081;DHT22;2055;50.074;8.436;2023-02-05T06:10:59;3.80;99.90
4081;DHT22;2055;50.074;8.436;2023-02-05T06:13:25;3.80;99.90
4081;DHT22;2055;50.074;8.436;2023-02-05T06:15:51;3.80;99.90
4081;DHT22;2055;50.074;8.436;2023-02-05T06:18:17;3.80;99.90
4081;DHT22;2055;50.074;8.436;2023-02-05T06:20:43;3.80;99.90
4081;DHT22;2055;50.074;8.436;2023-02-05T06:23:09;3.80;99.90
4081;DHT22;2055;50.074;8.436;2023-02-05T06:25:34;3.80;99.90
4081;DHT22;2055;50.074;8.436;2023-02-05T06:28:00;3.80;99.90
4081;DHT22;2055;50.074;8.436;2023-02-05T06:30:26;3.80;99.90
4081;DHT22;2055;50.074;8.436;2023-02-05T06:32:51;3.80;99.90
4081;DHT22;2055;50.074;8.436;2023-02-05T06:35:17;3.80;99.90
4081;DHT22;2055;50.074;8.436;2023-02-05T06:37:42;3.80;99.90
4081;DHT22;2055;50.074;8.436;2023-02-05T06:40:09;3.80;99.90
4081;DHT22;2055;50.074;8.436;2023-02-05T06:42:34;3.70;99.90
4081;DHT22;2055;50.074;8.436;2023-02-05T06:45:00;3.70;99.90
4081;DHT22;2055;50.074;8.436;2023-02-05T06:47:25;3.70;99.90
4081;DHT22;2055;50.074;8.436;2023-02-05T06:49:51;3.70;99.90
4081;DHT22;2055;50.074;8.436;2023-02-05T06:52:16;3.70;99.90
4081;DHT22;2055;50.074;8.436;2023-02-05T06:54:42;3.80;99.90
4081;DHT22;2055;50.074;8.436;2023-02-05T06:57:09;3.80;99.90
4081;DHT22;2055;50.074;8.436;2023-02-05T06:59:35;3.80;99.90
4081;DHT22;2055;50.074;8.436;2023-02-05T07:02:00;3.70;99.90
4081;DHT22;2055;50.074;8.436;2023-02-05T07:04:26;3.70;99.90
4081;DHT22;2055;50.074;8.436;2023-02-05T07:06:53;3.70;99.90
4081;DHT22;2055;50.074;8.436;2023-02-05T07:09:19;3.80;99.90
4081;DHT22;2055;50.074;8.436;2023-02-05T07:11:45;3.70;99.90
4081;DHT22;2055;50.074;8.436;2023-02-05T07:14:10;3.70;99.90
4081;DHT22;2055;50.074;8.436;2023-02-05T07:16:36;3.70;99.90
4081;DHT22;2055;50.074;8.436;2023-02-05T07:19:02;3.80;99.90
4081;DHT22;2055;50.074;8.436;2023-02-05T07:21:27;3.80;99.90
4081;DHT22;2055;50.074;8.436;2023-02-05T07:23:53;3.80;99.90
4081;DHT22;2055;50.074;8.436;2023-02-05T07:26:18;4.00;99.90
4081;DHT22;2055;50.074;8.436;2023-02-05T07:28:44;3.70;99.90
4081;DHT22;2055;50.074;8.436;2023-02-05T07:31:15;3.80;99.90
4081;DHT22;2055;50.074;8.436;2023-02-05T07:33:41;3.70;99.90
4081;DHT22;2055;50.074;8.436;2023-02-05T07:36:09;3.70;99.90
4081;DHT22;2055;50.074;8.436;2023-02-05T07:38:36;3.70;99.90
4081;DHT22;2055;50.074;8.436;2023-02-05T07:41:06;3.70;99.90
4081;DHT22;2055;50.074;8.436;2023-02-05T07:43:33;3.70;99.90
4081;DHT22;2055;50.074;8.436;2023-02-05T07:46:04;3.70;99.90
4081;DHT22;2055;50.074;8.436;2023-02-05T07:48:30;3.80;99.90
4081;DHT22;2055;50.074;8.436;2023-02-05T07:50:56;3.80;99.90
4081;DHT22;2055;50.074;8.436;2023-02-05T07:53:22;4.00;99.90
4081;DHT22;2055;50.074;8.436;2023-02-05T07:55:48;3.70;99.90
4081;DHT22;2055;50.074;8.436;2023-02-05T07:58:14;3.70;99.90
4081;DHT22;2055;50.074;8.436;2023-02-05T08:00:40;3.70;99.90
4081;DHT22;2055;50.074;8.436;2023-02-05T08:03:06;3.70;99.90
4081;DHT22;2055;50.074;8.436;2023-02-05T08:05:32;3.70;99.90
4081;DHT22;2055;50.074;8.436;2023-02-05T08:07:58;3.80;99.90
4081;DHT22;2055;50.074;8.436;2023-02-05T08:10:23;3.90;99.90
4081;DHT22;2055;50.074;8.436;2023-02-05T08:12:49;3.90;99.90
4081;DHT22;2055;50.074;8.436;2023-02-05T08:15:15;3.90;99.90
4081;DHT22;2055;50.074;8.436;2023-02-05T08:17:40;3.90;99.90
4081;DHT22;2055;50.074;8.436;2023-02-05T08:20:06;4.00;99.90
4081;DHT22;2055;50.074;8.436;2023-02-05T08:22:37;4.00;99.90
4081;DHT22;2055;50.074;8.436;2023-02-05T08:25:06;3.90;99.90
4081;DHT22;2055;50.074;8.436;2023-02-05T08:27:35;3.90;99.90
4081;DHT22;2055;50.074;8.436;2023-02-05T08:30:08;3.80;99.90
4081;DHT22;2055;50.074;8.436;2023-02-05T08:32:34;3.50;99.90
4081;DHT22;2055;50.074;8.436;2023-02-05T08:35:00;3.80;99.90
4081;DHT22;2055;50.074;8.436;2023-02-05T08:37:26;3.80;99.90
4081;DHT22;2055;50.074;8.436;2023-02-05T08:39:51;3.80;99.90
4081;DHT22;2055;50.074;8.436;2023-02-05T08:42:17;3.80;99.90
4081;DHT22;2055;50.074;8.436;2023-02-05T08:44:43;3.90;99.90
4081;DHT22;2055;50.074;8.436;2023-02-05T08:47:08;3.90;99.90
4081;DHT22;2055;50.074;8.436;2023-02-05T08:49:34;4.00;99.90
4081;DHT22;2055;50.074;8.436;2023-02-05T08:51:59;4.00;99.90
4081;DHT22;2055;50.074;8.436;2023-02-05T08:54:25;4.00;99.90
4081;DHT22;2055;50.074;8.436;2023-02-05T08:56:51;3.90;99.90
4081;DHT22;2055;50.074;8.436;2023-02-05T08:59:17;3.90;99.90
4081;DHT22;2055;50.074;8.436;2023-02-05T09:01:43;3.90;99.90
4081;DHT22;2055;50.074;8.436;2023-02-05T09:04:17;3.90;99.90
4081;DHT22;2055;50.074;8.436;2023-02-05T09:06:43;3.80;99.90
4081;DHT22;2055;50.074;8.436;2023-02-05T09:09:09;3.90;99.90
4081;DHT22;2055;50.074;8.436;2023-02-05T09:11:35;4.00;99.90
4081;DHT22;2055;50.074;8.436;2023-02-05T09:14:01;4.00;99.90
4081;DHT22;2055;50.074;8.436;2023-02-05T09:16:27;4.10;99.90
4081;DHT22;2055;50.074;8.436;2023-02-05T09:18:54;3.90;99.90
4081;DHT22;2055;50.074;8.436;2023-02-05T09:21:20;3.90;99.90
4081;DHT22;2055;50.074;8.436;2023-02-05T09:23:46;4.40;99.90
4081;DHT22;2055;50.074;8.436;2023-02-05T09:26:12;3.90;99.90
4081;DHT22;2055;50.074;8.436;2023-02-05T09:28:38;3.90;99.90
4081;DHT22;2055;50.074;8.436;2023-02-05T09:31:08;3.90;99.90
4081;DHT22;2055;50.074;8.436;2023-02-05T09:33:34;4.00;99.90
4081;DHT22;2055;50.074;8.436;2023-02-05T09:36:07;4.10;99.90
4081;DHT22;2055;50.074;8.436;2023-02-05T09:38:33;4.10;99.90
4081;DHT22;2055;50.074;8.436;2023-02-05T09:41:09;4.00;99.90
4081;DHT22;2055;50.074;8.436;2023-02-05T09:43:52;4.20;99.90
4081;DHT22;2055;50.074;8.436;2023-02-05T09:51:42;4.30;99.90
4081;DHT22;2055;50.074;8.436;2023-02-05T09:54:32;4.30;99.90
4081;DHT22;2055;50.074;8.436;2023-02-05T09:57:06;4.30;99.90
4081;DHT22;2055;50.074;8.436;2023-02-05T09:59:32;4.40;99.90
4081;DHT22;2055;50.074;8.436;2023-02-05T10:02:00;4.40;99.90
4081;DHT22;2055;50.074;8.436;2023-02-05T10:04:27;4.40;99.90
4081;DHT22;2055;50.074;8.436;2023-02-05T10:12:21;4.40;99.90
4081;DHT22;2055;50.074;8.436;2023-02-05T10:15:21;4.40;99.90
4081;DHT22;2055;50.074;8.436;2023-02-05T10:26:18;4.30;99.90
4081;DHT22;2055;50.074;8.436;2023-02-05T10:31:40;4.30;99.90
4081;DHT22;2055;50.074;8.436;2023-02-05T10:36:56;4.30;99.90
4081;DHT22;2055;50.074;8.436;2023-02-05T10:39:25;4.30;99.90
4081;DHT22;2055;50.074;8.436;2023-02-05T10:44:43;4.40;99.90
4081;DHT22;2055;50.074;8.436;2023-02-05T10:47:12;4.40;99.90
4081;DHT22;2055;50.074;8.436;2023-02-05T10:52:15;4.40;99.90
4081;DHT22;2055;50.074;8.436;2023-02-05T10:54:41;4.50;99.90
4081;DHT22;2055;50.074;8.436;2023-02-05T10:57:19;4.50;99.90
4081;DHT22;2055;50.074;8.436;2023-02-05T10:59:58;4.50;99.90
4081;DHT22;2055;50.074;8.436;2023-02-05T11:02:32;4.50;99.90
4081;DHT22;2055;50.074;8.436;2023-02-05T11:05:05;4.40;99.90
4081;DHT22;2055;50.074;8.436;2023-02-05T11:07:38;4.60;99.90
4081;DHT22;2055;50.074;8.436;2023-02-05T11:10:21;4.70;99.90
4081;DHT22;2055;50.074;8.436;2023-02-05T11:13:34;4.50;99.90
4081;DHT22;2055;50.074;8.436;2023-02-05T11:15:34;4.50;99.90
4081;DHT22;2055;50.074;8.436;2023-02-05T11:18:05;4.50;99.90
4081;DHT22;2055;50.074;8.436;2023-02-05T11:20:38;4.50;99.90
4081;DHT22;2055;50.074;8.436;2023-02-05T11:23:23;4.50;99.90
4081;DHT22;2055;50.074;8.436;2023-02-05T11:25:54;4.50;99.90
4081;DHT22;2055;50.074;8.436;2023-02-05T11:30:53;4.50;99.90
4081;DHT22;2055;50.074;8.436;2023-02-05T11:35:58;4.70;99.90
4081;DHT22;2055;50.074;8.436;2023-02-05T11:38:42;4.60;99.90
4081;DHT22;2055;50.074;8.436;2023-02-05T11:41:09;4.70;99.90
4081;DHT22;2055;50.074;8.436;2023-02-05T11:43:49;4.70;99.90
4081;DHT22;2055;50.074;8.436;2023-02-05T11:46:21;4.70;99.90
4081;DHT22;2055;50.074;8.436;2023-02-05T11:49:02;4.70;99.90
4081;DHT22;2055;50.074;8.436;2023-02-05T11:51:40;4.70;99.90
4081;DHT22;2055;50.074;8.436;2023-02-05T11:56:42;4.60;99.90
4081;DHT22;2055;50.074;8.436;2023-02-05T11:59:21;4.70;99.90
4081;DHT22;2055;50.074;8.436;2023-02-05T12:01:47;4.70;99.90
4081;DHT22;2055;50.074;8.436;2023-02-05T12:04:18;4.70;99.90
4081;DHT22;2055;50.074;8.436;2023-02-05T12:06:58;4.70;99.90
4081;DHT22;2055;50.074;8.436;2023-02-05T12:09:26;4.80;99.90
4081;DHT22;2055;50.074;8.436;2023-02-05T12:12:22;4.80;99.90
4081;DHT22;2055;50.074;8.436;2023-02-05T12:15:00;4.80;99.90
4081;DHT22;2055;50.074;8.436;2023-02-05T12:32:20;5.10;99.90
4081;DHT22;2055;50.074;8.436;2023-02-05T12:37:13;5.20;99.90
4081;DHT22;2055;50.074;8.436;2023-02-05T12:47:59;5.30;99.90
4081;DHT22;2055;50.074;8.436;2023-02-05T12:50:43;5.20;99.90
4081;DHT22;2055;50.074;8.436;2023-02-05T12:58:52;5.20;99.90
4081;DHT22;2055;50.074;8.436;2023-02-05T13:04:01;5.00;99.90
4081;DHT22;2055;50.074;8.436;2023-02-05T13:06:42;4.90;99.90
4081;DHT22;2055;50.074;8.436;2023-02-05T13:09:22;4.90;99.90
4081;DHT22;2055;50.074;8.436;2023-02-05T13:12:03;5.00;99.90
4081;DHT22;2055;50.074;8.436;2023-02-05T13:14:37;5.10;99.90
4081;DHT22;2055;50.074;8.436;2023-02-05T13:17:16;5.20;99.90
4081;DHT22;2055;50.074;8.436;2023-02-05T13:19:48;5.20;99.90
4081;DHT22;2055;50.074;8.436;2023-02-05T13:25:28;5.30;99.90
4081;DHT22;2055;50.074;8.436;2023-02-05T13:27:57;5.00;99.90
4081;DHT22;2055;50.074;8.436;2023-02-05T13:31:01;5.20;99.90
4081;DHT22;2055;50.074;8.436;2023-02-05T13:33:27;5.20;99.90
4081;DHT22;2055;50.074;8.436;2023-02-05T13:42:12;5.40;99.90
4081;DHT22;2055;50.074;8.436;2023-02-05T13:45:11;5.40;99.90
4081;DHT22;2055;50.074;8.436;2023-02-05T13:50:36;5.40;99.90
4081;DHT22;2055;50.074;8.436;2023-02-05T13:53:21;5.40;99.90
4081;DHT22;2055;50.074;8.436;2023-02-05T13:56:29;5.40;99.90
4081;DHT22;2055;50.074;8.436;2023-02-05T13:59:09;5.50;99.90
4081;DHT22;2055;50.074;8.436;2023-02-05T14:01:49;5.40;99.90
4081;DHT22;2055;50.074;8.436;2023-02-05T14:07:03;5.30;99.90
4081;DHT22;2055;50.074;8.436;2023-02-05T14:09:51;5.40;99.90
4081;DHT22;2055;50.074;8.436;2023-02-05T14:12:23;5.60;99.90
4081;DHT22;2055;50.074;8.436;2023-02-05T14:15:22;5.80;99.90
4081;DHT22;2055;50.074;8.436;2023-02-05T14:20:35;5.70;99.90
4081;DHT22;2055;50.074;8.436;2023-02-05T14:23:10;5.70;99.90
4081;DHT22;2055;50.074;8.436;2023-02-05T14:33:40;5.60;99.90
4081;DHT22;2055;50.074;8.436;2023-02-05T14:38:50;5.70;99.90
4081;DHT22;2055;50.074;8.436;2023-02-05T14:41:20;5.70;99.90
4081;DHT22;2055;50.074;8.436;2023-02-05T14:43:55;5.70;99.90
4081;DHT22;2055;50.074;8.436;2023-02-05T14:46:54;5.70;99.90
4081;DHT22;2055;50.074;8.436;2023-02-05T14:49:24;5.70;99.90
4081;DHT22;2055;50.074;8.436;2023-02-05T14:51:53;5.60;99.90
4081;DHT22;2055;50.074;8.436;2023-02-05T14:54:24;5.60;99.90
4081;DHT22;2055;50.074;8.436;2023-02-05T14:56:53;5.50;99.90
4081;DHT22;2055;50.074;8.436;2023-02-05T15:02:50;5.50;99.90
4081;DHT22;2055;50.074;8.436;2023-02-05T15:05:23;5.50;99.90
4081;DHT22;2055;50.074;8.436;2023-02-05T15:10:31;5.30;99.90
4081;DHT22;2055;50.074;8.436;2023-02-05T15:13:08;5.30;99.90
4081;DHT22;2055;50.074;8.436;2023-02-05T15:15:35;5.30;99.90
4081;DHT22;2055;50.074;8.436;2023-02-05T15:18:20;5.30;99.90
4081;DHT22;2055;50.074;8.436;2023-02-05T15:20:50;5.30;99.90
4081;DHT22;2055;50.074;8.436;2023-02-05T15:23:27;5.30;99.90
4081;DHT22;2055;50.074;8.436;2023-02-05T15:26:15;5.30;99.90
4081;DHT22;2055;50.074;8.436;2023-02-05T15:28:55;5.30;99.90
4081;DHT22;2055;50.074;8.436;2023-02-05T15:31:33;5.40;99.90
4081;DHT22;2055;50.074;8.436;2023-02-05T15:34:28;5.40;99.90
4081;DHT22;2055;50.074;8.436;2023-02-05T15:37:05;5.30;99.90
4081;DHT22;2055;50.074;8.436;2023-02-05T15:39:51;5.30;99.90
4081;DHT22;2055;50.074;8.436;2023-02-05T15:42:21;5.30;99.90
4081;DHT22;2055;50.074;8.436;2023-02-05T15:44:51;5.30;99.90
4081;DHT22;2055;50.074;8.436;2023-02-05T15:47:22;5.30;99.90
4081;DHT22;2055;50.074;8.436;2023-02-05T15:49:53;5.20;99.90
4081;DHT22;2055;50.074;8.436;2023-02-05T15:52:24;5.20;99.90
4081;DHT22;2055;50.074;8.436;2023-02-05T15:54:53;5.20;99.90
4081;DHT22;2055;50.074;8.436;2023-02-05T15:57:22;5.20;99.90
4081;DHT22;2055;50.074;8.436;2023-02-05T15:59:50;5.20;99.90
4081;DHT22;2055;50.074;8.436;2023-02-05T16:02:19;5.20;99.90
4081;DHT22;2055;50.074;8.436;2023-02-05T16:04:58;5.20;99.90
4081;DHT22;2055;50.074;8.436;2023-02-05T16:07:26;5.20;99.90
4081;DHT22;2055;50.074;8.436;2023-02-05T16:09:58;5.20;99.90
4081;DHT22;2055;50.074;8.436;2023-02-05T16:12:24;5.20;99.90
4081;DHT22;2055;50.074;8.436;2023-02-05T16:15:01;5.20;99.90
4081;DHT22;2055;50.074;8.436;2023-02-05T16:17:38;5.00;99.90
4081;DHT22;2055;50.074;8.436;2023-02-05T16:20:09;5.20;99.90
4081;DHT22;2055;50.074;8.436;2023-02-05T16:22:58;5.20;99.90
4081;DHT22;2055;50.074;8.436;2023-02-05T16:28:49;5.50;99.90
4081;DHT22;2055;50.074;8.436;2023-02-05T16:30:51;5.20;99.90
4081;DHT22;2055;50.074;8.436;2023-02-05T16:33:45;5.10;99.90
4081;DHT22;2055;50.074;8.436;2023-02-05T16:36:22;5.20;99.90
4081;DHT22;2055;50.074;8.436;2023-02-05T16:38:59;5.10;99.90
4081;DHT22;2055;50.074;8.436;2023-02-05T16:41:32;5.10;99.90
4081;DHT22;2055;50.074;8.436;2023-02-05T16:44:01;5.10;99.90
4081;DHT22;2055;50.074;8.436;2023-02-05T16:46:36;5.10;99.90
4081;DHT22;2055;50.074;8.436;2023-02-05T16:56:57;5.00;99.90
4081;DHT22;2055;50.074;8.436;2023-02-05T16:59:28;5.00;99.90
4081;DHT22;2055;50.074;8.436;2023-02-05T17:01:54;5.00;99.90
4081;DHT22;2055;50.074;8.436;2023-02-05T17:04:32;5.00;99.90
4081;DHT22;2055;50.074;8.436;2023-02-05T17:07:02;4.90;99.90
4081;DHT22;2055;50.074;8.436;2023-02-05T17:09:37;5.00;99.90
4081;DHT22;2055;50.074;8.436;2023-02-05T17:14:58;4.90;99.90
4081;DHT22;2055;50.074;8.436;2023-02-05T17:17:25;4.90;99.90
4081;DHT22;2055;50.074;8.436;2023-02-05T17:25:38;4.80;99.90
4081;DHT22;2055;50.074;8.436;2023-02-05T17:28:09;4.80;99.90
4081;DHT22;2055;50.074;8.436;2023-02-05T17:30:35;4.80;99.90
4081;DHT22;2055;50.074;8.436;2023-02-05T17:33:05;4.80;99.90
4081;DHT22;2055;50.074;8.436;2023-02-05T17:35:32;4.80;99.90
4081;DHT22;2055;50.074;8.436;2023-02-05T17:37:58;4.80;99.90
4081;DHT22;2055;50.074;8.436;2023-02-05T17:40:23;4.80;99.90
4081;DHT22;2055;50.074;8.436;2023-02-05T17:42:49;4.80;99.90
4081;DHT22;2055;50.074;8.436;2023-02-05T17:45:24;4.80;99.90
4081;DHT22;2055;50.074;8.436;2023-02-05T17:47:50;4.80;99.90
4081;DHT22;2055;50.074;8.436;2023-02-05T17:50:16;4.80;99.90
4081;DHT22;2055;50.074;8.436;2023-02-05T17:52:43;4.90;99.90
4081;DHT22;2055;50.074;8.436;2023-02-05T17:55:19;4.90;99.90
4081;DHT22;2055;50.074;8.436;2023-02-05T17:57:45;4.80;99.90
4081;DHT22;2055;50.074;8.436;2023-02-05T18:00:17;4.90;99.90
4081;DHT22;2055;50.074;8.436;2023-02-05T18:02:43;4.90;99.90
4081;DHT22;2055;50.074;8.436;2023-02-05T18:05:09;5.00;99.90
4081;DHT22;2055;50.074;8.436;2023-02-05T18:07:47;4.90;99.90
4081;DHT22;2055;50.074;8.436;2023-02-05T18:10:16;5.00;99.90
4081;DHT22;2055;50.074;8.436;2023-02-05T18:12:41;5.00;99.90
4081;DHT22;2055;50.074;8.436;2023-02-05T18:15:08;5.00;99.90
4081;DHT22;2055;50.074;8.436;2023-02-05T18:17:34;5.00;99.90
4081;DHT22;2055;50.074;8.436;2023-02-05T18:19:59;5.00;99.90
4081;DHT22;2055;50.074;8.436;2023-02-05T18:22:25;5.00;99.90
4081;DHT22;2055;50.074;8.436;2023-02-05T18:24:50;5.00;99.90
4081;DHT22;2055;50.074;8.436;2023-02-05T18:27:16;5.00;99.90
4081;DHT22;2055;50.074;8.436;2023-02-05T18:29:42;5.00;99.90
4081;DHT22;2055;50.074;8.436;2023-02-05T18:32:07;5.00;99.90
4081;DHT22;2055;50.074;8.436;2023-02-05T18:34:33;5.00;99.90
4081;DHT22;2055;50.074;8.436;2023-02-05T18:36:58;5.00;99.90
4081;DHT22;2055;50.074;8.436;2023-02-05T18:39:24;5.10;99.90
4081;DHT22;2055;50.074;8.436;2023-02-05T18:41:53;5.30;99.90
4081;DHT22;2055;50.074;8.436;2023-02-05T18:44:18;5.10;99.90
4081;DHT22;2055;50.074;8.436;2023-02-05T18:46:44;5.10;99.90
4081;DHT22;2055;50.074;8.436;2023-02-05T18:49:10;5.10;99.90
4081;DHT22;2055;50.074;8.436;2023-02-05T18:51:35;5.10;99.90
4081;DHT22;2055;50.074;8.436;2023-02-05T18:54:02;5.10;99.90
4081;DHT22;2055;50.074;8.436;2023-02-05T18:56:27;5.10;99.90
4081;DHT22;2055;50.074;8.436;2023-02-05T18:58:55;5.10;99.90
4081;DHT22;2055;50.074;8.436;2023-02-05T19:01:24;5.20;99.90
4081;DHT22;2055;50.074;8.436;2023-02-05T19:03:50;5.20;99.90
4081;DHT22;2055;50.074;8.436;2023-02-05T19:06:19;5.20;99.90
4081;DHT22;2055;50.074;8.436;2023-02-05T19:08:46;5.20;99.90
4081;DHT22;2055;50.074;8.436;2023-02-05T19:11:15;5.20;99.90